Time;durP1;ratioP1;P1;durP2;ratioP2;P2;SDS_P1;SDS_P2;PMS_P1;PMS_P2;Temp;Humidity;BMP_temperature;BMP_pressure;BME280_temperature;BME280_humidity;BME280_pressure;Samples;Min_cycle;Max_cycle;Signal;HPM_P1;HPM_P2
2023/09/07 00:00:24;;;;;;;8.80;5.40;;;;;;;;;;5114456;28;20030;-27
2023/09/07 00:02:49;;;;;;;8.43;5.13;;;;;;;;;;5114384;28;20261;-27
2023/09/07 00:05:14;;;;;;;6.78;5.03;;;;;;;;;;5114334;28;20716;-27
2023/09/07 00:07:39;;;;;;;8.63;5.10;;;;;;;;;;5114860;28;20023;-27
2023/09/07 00:10:05;;;;;;;8.10;4.77;;;;;;;;;;5114252;28;20258;-27
2023/09/07 00:12:30;;;;;;;7.88;4.93;;;;;;;;;;5113204;28;20444;-27
2023/09/07 00:14:56;;;;;;;9.67;4.80;;;;;;;;;;5113680;28;20026;-28
2023/09/07 00:17:21;;;;;;;8.63;4.53;;;;;;;;;;5113474;28;20253;-26
2023/09/07 00:19:49;;;;;;;6.07;4.70;;;;;;;;;;5114073;28;20035;-26
2023/09/07 00:22:14;;;;;;;6.45;4.80;;;;;;;;;;5114904;28;20024;-27
2023/09/07 00:24:39;;;;;;;6.65;4.57;;;;;;;;;;5114061;28;20092;-26
2023/09/07 00:27:06;;;;;;;8.13;5.40;;;;;;;;;;5113997;28;20106;-26
2023/09/07 00:29:31;;;;;;;7.80;5.03;;;;;;;;;;5114129;28;20014;-26
2023/09/07 00:31:56;;;;;;;6.85;4.93;;;;;;;;;;5113842;28;20019;-26
2023/09/07 00:34:21;;;;;;;7.10;5.10;;;;;;;;;;5114244;28;20057;-26
2023/09/07 00:36:46;;;;;;;10.10;4.90;;;;;;;;;;5113929;28;20064;-27
2023/09/07 00:39:12;;;;;;;11.10;4.90;;;;;;;;;;5114206;28;20081;-27
2023/09/07 00:41:37;;;;;;;8.15;4.70;;;;;;;;;;5114126;28;20261;-27
2023/09/07 00:44:03;;;;;;;8.27;4.67;;;;;;;;;;5113884;28;20065;-27
2023/09/07 00:46:28;;;;;;;9.25;5.28;;;;;;;;;;5114387;28;20407;-27
2023/09/07 00:48:53;;;;;;;6.43;4.90;;;;;;;;;;5113735;28;20126;-27
2023/09/07 00:51:18;;;;;;;9.95;4.88;;;;;;;;;;5113817;28;20351;-27
2023/09/07 00:53:44;;;;;;;11.77;5.35;;;;;;;;;;5113721;28;20028;-27
2023/09/07 00:56:09;;;;;;;11.63;5.18;;;;;;;;;;5113829;28;20023;-27
2023/09/07 00:58:34;;;;;;;9.80;5.13;;;;;;;;;;5113734;28;20051;-26
2023/09/07 01:01:00;;;;;;;6.53;5.03;;;;;;;;;;5113933;28;20447;-27
2023/09/07 01:03:25;;;;;;;8.75;5.30;;;;;;;;;;5113617;28;20038;-26
2023/09/07 01:06:17;;;;;;;9.35;5.20;;;;;;;;;;5118066;28;20024;-27
2023/09/07 01:08:44;;;;;;;12.38;5.30;;;;;;;;;;5078888;28;20035;-26
2023/09/07 01:11:16;;;;;;;9.20;5.65;;;;;;;;;;5117965;28;20366;-27
2023/09/07 01:13:42;;;;;;;11.55;5.40;;;;;;;;;;5109566;28;20059;-26
2023/09/07 01:16:07;;;;;;;11.95;5.72;;;;;;;;;;5117613;28;20397;-26
2023/09/07 01:18:33;;;;;;;9.38;5.57;;;;;;;;;;5118150;28;20019;-25
2023/09/07 01:21:00;;;;;;;8.88;5.20;;;;;;;;;;5117499;28;20012;-26
2023/09/07 01:23:25;;;;;;;10.88;5.40;;;;;;;;;;5117771;28;20027;-28
2023/09/07 01:25:50;;;;;;;13.38;5.40;;;;;;;;;;5117730;28;20085;-26
2023/09/07 01:28:16;;;;;;;9.35;5.38;;;;;;;;;;5117897;28;20044;-26
2023/09/07 01:30:41;;;;;;;11.07;5.60;;;;;;;;;;5117476;28;20050;-26
2023/09/07 01:33:08;;;;;;;9.10;5.65;;;;;;;;;;5098961;28;20064;-26
2023/09/07 01:35:34;;;;;;;9.48;5.70;;;;;;;;;;5117157;28;20023;-26
2023/09/07 01:38:00;;;;;;;6.97;5.68;;;;;;;;;;5117432;28;20419;-26
2023/09/07 01:40:25;;;;;;;8.63;5.80;;;;;;;;;;5117766;28;20061;-26
2023/09/07 01:42:50;;;;;;;12.13;5.70;;;;;;;;;;5117335;28;20027;-26
2023/09/07 01:45:15;;;;;;;8.03;5.67;;;;;;;;;;5117050;28;20426;-26
2023/09/07 01:47:41;;;;;;;9.03;5.77;;;;;;;;;;5116854;28;20301;-26
2023/09/07 01:50:06;;;;;;;8.83;6.07;;;;;;;;;;5116989;28;20023;-27
2023/09/07 01:52:31;;;;;;;7.47;5.30;;;;;;;;;;5117105;28;20280;-26
2023/09/07 01:54:56;;;;;;;10.63;5.55;;;;;;;;;;5116736;28;20015;-26
2023/09/07 01:57:22;;;;;;;11.07;5.97;;;;;;;;;;5098475;28;20094;-26
2023/09/07 01:59:48;;;;;;;8.98;5.72;;;;;;;;;;5116819;28;20332;-26
2023/09/07 02:02:13;;;;;;;8.02;5.80;;;;;;;;;;5116596;28;20072;-26
2023/09/07 02:04:38;;;;;;;8.02;5.90;;;;;;;;;;5116929;28;20027;-26
2023/09/07 02:07:04;;;;;;;8.93;6.17;;;;;;;;;;5117201;28;20092;-26
2023/09/07 02:09:29;;;;;;;9.23;6.25;;;;;;;;;;5116862;28;20054;-27
2023/09/07 02:11:55;;;;;;;9.18;6.18;;;;;;;;;;5116523;28;20023;-26
2023/09/07 02:14:20;;;;;;;7.75;5.85;;;;;;;;;;5116776;28;20019;-26
2023/09/07 02:16:45;;;;;;;8.73;6.33;;;;;;;;;;5097890;28;20076;-26
2023/09/07 02:19:10;;;;;;;8.77;6.00;;;;;;;;;;5116963;28;20261;-26
2023/09/07 02:21:35;;;;;;;11.20;6.80;;;;;;;;;;5116928;28;20015;-26
2023/09/07 02:24:01;;;;;;;9.20;6.60;;;;;;;;;;5098082;28;20037;-26
2023/09/07 02:26:26;;;;;;;7.80;6.33;;;;;;;;;;5116295;28;20026;-25
2023/09/07 02:28:51;;;;;;;9.00;6.50;;;;;;;;;;5116726;28;20035;-26
2023/09/07 02:31:16;;;;;;;9.70;6.40;;;;;;;;;;5116388;28;20022;-26
2023/09/07 02:33:42;;;;;;;10.55;6.72;;;;;;;;;;5116329;28;20023;-26
2023/09/07 02:36:07;;;;;;;11.20;6.37;;;;;;;;;;5116044;28;20478;-26
2023/09/07 02:38:32;;;;;;;11.13;6.50;;;;;;;;;;5116381;28;20249;-26
2023/09/07 02:40:58;;;;;;;9.93;6.65;;;;;;;;;;5116194;28;20310;-26
2023/09/07 02:43:23;;;;;;;9.43;6.65;;;;;;;;;;5116263;28;20025;-26
2023/09/07 02:45:49;;;;;;;9.80;6.53;;;;;;;;;;5116228;28;20453;-26
2023/09/07 02:48:14;;;;;;;9.50;6.38;;;;;;;;;;5097577;28;20050;-26
2023/09/07 02:50:40;;;;;;;9.30;6.67;;;;;;;;;;5115803;28;20027;-26
2023/09/07 02:53:05;;;;;;;10.27;6.33;;;;;;;;;;5116216;28;20274;-26
2023/09/07 02:55:30;;;;;;;7.82;6.60;;;;;;;;;;5115778;28;20055;-26
2023/09/07 02:57:59;;;;;;;10.13;6.30;;;;;;;;;;5116245;28;20068;-26
2023/09/07 03:00:24;;;;;;;8.52;5.82;;;;;;;;;;5115912;28;20019;-26
2023/09/07 03:02:50;;;;;;;9.82;6.40;;;;;;;;;;5097244;28;20019;-26
2023/09/07 03:05:15;;;;;;;9.38;6.30;;;;;;;;;;5116069;28;20019;-26
2023/09/07 03:07:41;;;;;;;13.82;6.47;;;;;;;;;;5115500;28;20019;-26
2023/09/07 03:10:06;;;;;;;11.47;6.80;;;;;;;;;;5115696;28;20028;-26
2023/09/07 03:12:31;;;;;;;8.82;6.68;;;;;;;;;;5097061;28;20281;-26
2023/09/07 03:14:56;;;;;;;10.93;6.90;;;;;;;;;;5115339;28;20343;-25
2023/09/07 03:17:21;;;;;;;11.17;6.23;;;;;;;;;;5115279;28;20766;-25
2023/09/07 03:19:47;;;;;;;8.47;6.67;;;;;;;;;;5115250;28;20037;-26
2023/09/07 03:22:12;;;;;;;10.77;6.35;;;;;;;;;;5115180;28;20254;-26
2023/09/07 03:24:37;;;;;;;8.43;6.22;;;;;;;;;;5115159;28;20094;-26
2023/09/07 03:27:03;;;;;;;10.30;7.13;;;;;;;;;;5114886;28;20020;-26
2023/09/07 03:29:29;;;;;;;13.45;6.40;;;;;;;;;;5115212;28;20016;-26
2023/09/07 03:31:55;;;;;;;9.48;6.35;;;;;;;;;;5115200;28;20398;-26
2023/09/07 03:34:20;;;;;;;11.73;6.93;;;;;;;;;;5114947;28;20021;-26
2023/09/07 03:36:46;;;;;;;14.88;6.82;;;;;;;;;;5113438;28;20015;-26
2023/09/07 03:39:11;;;;;;;10.70;6.60;;;;;;;;;;5115103;28;20007;-26
2023/09/07 03:41:36;;;;;;;9.50;6.43;;;;;;;;;;5115403;28;20090;-27
2023/09/07 03:44:01;;;;;;;9.63;6.93;;;;;;;;;;5114964;28;20336;-26
2023/09/07 03:46:27;;;;;;;10.15;6.25;;;;;;;;;;5114647;28;20011;-26
2023/09/07 03:48:52;;;;;;;11.70;6.75;;;;;;;;;;5114553;28;20062;-26
2023/09/07 03:51:17;;;;;;;12.43;6.83;;;;;;;;;;5114674;28;20513;-26
2023/09/07 03:53:42;;;;;;;11.15;6.90;;;;;;;;;;5114495;28;20270;-26
2023/09/07 03:56:07;;;;;;;11.33;7.20;;;;;;;;;;5115096;28;20084;-26
2023/09/07 03:58:33;;;;;;;10.17;6.83;;;;;;;;;;5114526;28;20716;-26
2023/09/07 04:00:59;;;;;;;11.75;6.97;;;;;;;;;;5114707;28;20291;-26
2023/09/07 04:03:24;;;;;;;11.40;6.97;;;;;;;;;;5114394;28;20049;-26
2023/09/07 04:05:50;;;;;;;8.37;6.57;;;;;;;;;;5114386;28;20027;-26
2023/09/07 04:08:15;;;;;;;9.75;6.88;;;;;;;;;;5114792;28;20250;-26
2023/09/07 04:10:40;;;;;;;16.03;7.50;;;;;;;;;;5114860;28;20047;-26
2023/09/07 04:13:06;;;;;;;10.77;7.25;;;;;;;;;;5114740;28;20722;-29
2023/09/07 04:15:33;;;;;;;9.93;6.60;;;;;;;;;;5114502;28;20023;-30
2023/09/07 04:17:58;;;;;;;10.88;6.68;;;;;;;;;;5096141;28;20015;-29
2023/09/07 04:20:23;;;;;;;9.80;6.80;;;;;;;;;;5114480;28;20027;-29
2023/09/07 04:22:49;;;;;;;11.18;7.05;;;;;;;;;;5114022;28;20022;-29
2023/09/07 04:25:14;;;;;;;11.05;7.10;;;;;;;;;;5114181;28;20111;-29
2023/09/07 04:27:39;;;;;;;9.30;6.85;;;;;;;;;;5114290;28;20027;-29
2023/09/07 04:30:05;;;;;;;10.43;7.00;;;;;;;;;;5114223;28;20023;-29
2023/09/07 04:32:30;;;;;;;13.02;7.30;;;;;;;;;;5112580;28;20644;-29
2023/09/07 04:34:56;;;;;;;9.83;6.77;;;;;;;;;;5113762;28;20020;-29
2023/09/07 04:37:21;;;;;;;14.90;7.15;;;;;;;;;;5095650;28;20666;-29
2023/09/07 04:39:49;;;;;;;10.68;7.65;;;;;;;;;;5114154;28;20037;-29
2023/09/07 04:42:14;;;;;;;14.32;7.72;;;;;;;;;;5114148;28;20129;-29
2023/09/07 04:44:39;;;;;;;11.80;7.80;;;;;;;;;;5114349;28;20068;-29
2023/09/07 04:47:05;;;;;;;11.97;7.80;;;;;;;;;;5113778;28;22914;-29
2023/09/07 04:49:30;;;;;;;9.15;7.47;;;;;;;;;;5112773;28;20293;-29
2023/09/07 04:51:55;;;;;;;11.87;7.47;;;;;;;;;;5111613;28;20076;-29
2023/09/07 04:54:20;;;;;;;12.07;7.25;;;;;;;;;;5112400;28;20054;-29
2023/09/07 04:56:45;;;;;;;12.10;7.43;;;;;;;;;;5113746;28;20019;-29
2023/09/07 04:59:11;;;;;;;12.23;7.83;;;;;;;;;;5113696;28;20250;-30
2023/09/07 05:01:36;;;;;;;9.57;7.43;;;;;;;;;;5113681;28;20303;-29
2023/09/07 05:04:03;;;;;;;14.40;7.27;;;;;;;;;;5114190;28;20322;-29
2023/09/07 05:06:28;;;;;;;13.57;8.00;;;;;;;;;;5113606;28;20253;-29
2023/09/07 05:08:54;;;;;;;12.43;8.30;;;;;;;;;;5095308;28;20019;-29
2023/09/07 05:11:19;;;;;;;12.98;8.25;;;;;;;;;;5113646;28;20019;-29
2023/09/07 05:13:44;;;;;;;13.27;8.10;;;;;;;;;;5113550;28;20035;-29
2023/09/07 05:16:09;;;;;;;20.13;8.17;;;;;;;;;;5114425;28;20353;-29
2023/09/07 05:18:34;;;;;;;20.88;7.80;;;;;;;;;;5114068;28;20660;-30
2023/09/07 05:21:00;;;;;;;13.97;7.43;;;;;;;;;;5113582;28;20485;-29
2023/09/07 05:23:26;;;;;;;16.00;7.60;;;;;;;;;;5113715;28;20337;-29
2023/09/07 05:25:52;;;;;;;20.38;7.82;;;;;;;;;;5113721;28;20252;-29
2023/09/07 05:28:18;;;;;;;14.23;7.78;;;;;;;;;;5113471;28;20112;-30
2023/09/07 05:30:44;;;;;;;11.25;7.13;;;;;;;;;;5113947;28;20051;-29
2023/09/07 05:33:09;;;;;;;11.93;7.45;;;;;;;;;;5113294;28;20438;-29
2023/09/07 05:35:35;;;;;;;12.18;7.78;;;;;;;;;;5113852;28;20019;-29
2023/09/07 05:38:00;;;;;;;10.10;7.43;;;;;;;;;;5114160;28;20117;-29
2023/09/07 05:40:25;;;;;;;10.07;7.37;;;;;;;;;;5113255;28;20011;-28
2023/09/07 05:42:50;;;;;;;11.77;7.43;;;;;;;;;;5113337;28;20020;-29
2023/09/07 05:45:15;;;;;;;10.27;7.80;;;;;;;;;;5113573;28;20258;-28
2023/09/07 05:47:41;;;;;;;14.02;8.10;;;;;;;;;;5113108;28;20274;-29
2023/09/07 05:50:06;;;;;;;13.20;7.93;;;;;;;;;;5114040;28;20016;-29
2023/09/07 05:52:31;;;;;;;11.57;8.23;;;;;;;;;;5117379;28;20023;-29
2023/09/07 05:54:56;;;;;;;12.35;7.80;;;;;;;;;;5116839;28;20058;-28
2023/09/07 05:57:22;;;;;;;15.27;8.03;;;;;;;;;;5116805;28;20016;-28
2023/09/07 05:59:47;;;;;;;15.80;8.00;;;;;;;;;;5099086;28;20276;-28
2023/09/07 06:02:12;;;;;;;15.40;8.10;;;;;;;;;;5117209;28;20020;-28
2023/09/07 06:04:37;;;;;;;20.43;8.07;;;;;;;;;;5117230;28;20430;-28
2023/09/07 06:07:02;;;;;;;17.23;8.40;;;;;;;;;;5116530;28;20767;-28
2023/09/07 06:09:28;;;;;;;17.23;8.63;;;;;;;;;;5116436;28;20450;-28
2023/09/07 06:11:54;;;;;;;11.30;8.25;;;;;;;;;;5115769;28;20108;-29
2023/09/07 06:14:19;;;;;;;12.48;7.93;;;;;;;;;;5116523;28;20103;-28
2023/09/07 06:16:45;;;;;;;11.18;7.88;;;;;;;;;;5116259;28;20432;-28
2023/09/07 06:19:10;;;;;;;16.37;7.77;;;;;;;;;;5115421;28;20018;-28
2023/09/07 06:21:35;;;;;;;11.23;7.53;;;;;;;;;;5114110;28;20254;-28
2023/09/07 06:24:00;;;;;;;14.80;8.07;;;;;;;;;;5114124;28;20661;-28
2023/09/07 06:26:25;;;;;;;11.77;7.80;;;;;;;;;;5114950;28;20743;-29
2023/09/07 06:28:51;;;;;;;11.57;7.88;;;;;;;;;;5096573;28;20035;-29
2023/09/07 06:31:16;;;;;;;13.85;8.00;;;;;;;;;;5114684;28;20463;-28
2023/09/07 06:33:41;;;;;;;11.27;7.85;;;;;;;;;;5096390;28;20027;-29
2023/09/07 06:36:06;;;;;;;12.13;8.00;;;;;;;;;;5097799;28;20466;-28
2023/09/07 06:38:32;;;;;;;12.50;7.57;;;;;;;;;;5116353;28;20068;-29
2023/09/07 06:40:57;;;;;;;16.95;8.68;;;;;;;;;;5116978;28;20016;-29
2023/09/07 06:43:22;;;;;;;14.10;8.23;;;;;;;;;;5116277;28;20029;-29
2023/09/07 06:45:48;;;;;;;14.43;7.80;;;;;;;;;;5097521;28;20280;-29
2023/09/07 06:48:13;;;;;;;15.63;8.07;;;;;;;;;;5115795;28;20134;-29
2023/09/07 06:50:38;;;;;;;17.00;8.68;;;;;;;;;;5115785;28;20045;-29
2023/09/07 06:53:04;;;;;;;11.43;7.95;;;;;;;;;;5116118;28;20044;-29
2023/09/07 06:55:29;;;;;;;12.20;8.30;;;;;;;;;;5115721;28;20012;-29
2023/09/07 06:57:55;;;;;;;11.27;7.68;;;;;;;;;;5115902;28;20250;-29
2023/09/07 07:00:20;;;;;;;9.07;6.45;;;;;;;;;;5115820;28;20016;-29
2023/09/07 07:02:45;;;;;;;12.50;6.43;;;;;;;;;;5114273;28;20027;-29
2023/09/07 07:05:11;;;;;;;14.20;6.20;;;;;;;;;;5115459;28;20019;-29
2023/09/07 07:07:36;;;;;;;10.00;5.90;;;;;;;;;;5115542;28;20250;-29
2023/09/07 07:10:01;;;;;;;12.93;6.03;;;;;;;;;;5115236;28;20027;-29
2023/09/07 07:12:26;;;;;;;9.40;5.90;;;;;;;;;;5115141;28;20378;-29
2023/09/07 07:14:51;;;;;;;9.77;5.57;;;;;;;;;;5115114;28;20019;-29
2023/09/07 07:17:17;;;;;;;11.52;5.40;;;;;;;;;;5097677;28;20640;-29
2023/09/07 07:19:43;;;;;;;15.43;5.27;;;;;;;;;;5115241;28;20027;-29
2023/09/07 07:22:08;;;;;;;9.90;5.22;;;;;;;;;;5115356;28;20023;-28
2023/09/07 07:24:34;;;;;;;6.57;4.70;;;;;;;;;;5115319;28;20016;-28
2023/09/07 07:26:59;;;;;;;9.30;4.80;;;;;;;;;;5113211;28;20016;-29
2023/09/07 07:29:24;;;;;;;7.93;5.30;;;;;;;;;;5114895;28;20030;-28
2023/09/07 07:31:49;;;;;;;10.90;4.85;;;;;;;;;;5114796;28;20269;-29
2023/09/07 07:34:15;;;;;;;9.43;4.90;;;;;;;;;;5114967;28;20024;-29
2023/09/07 07:36:40;;;;;;;10.73;4.70;;;;;;;;;;5115294;28;20022;-28
2023/09/07 07:39:07;;;;;;;7.77;4.70;;;;;;;;;;5096745;28;20051;-29
2023/09/07 07:41:32;;;;;;;8.95;4.57;;;;;;;;;;5096939;28;20265;-29
2023/09/07 07:43:58;;;;;;;8.60;5.20;;;;;;;;;;5096621;28;20378;-29
2023/09/07 07:46:23;;;;;;;6.75;4.80;;;;;;;;;;5096180;28;20020;-29
2023/09/07 07:48:49;;;;;;;9.07;4.68;;;;;;;;;;5091935;28;20056;-29
2023/09/07 07:51:14;;;;;;;7.85;4.97;;;;;;;;;;5094282;28;20039;-29
2023/09/07 07:53:40;;;;;;;7.38;4.78;;;;;;;;;;5092809;28;20024;-29
2023/09/07 07:56:13;;;;;;;8.18;5.00;;;;;;;;;;5094443;28;20106;-29
2023/09/07 07:58:38;;;;;;;11.65;5.05;;;;;;;;;;5093976;28;20016;-29
2023/09/07 08:01:12;;;;;;;10.87;5.07;;;;;;;;;;5093990;28;20073;-29
2023/09/07 08:03:37;;;;;;;9.48;5.10;;;;;;;;;;5093884;28;20024;-29
2023/09/07 08:06:03;;;;;;;9.80;4.73;;;;;;;;;;5093880;28;20024;-29
2023/09/07 08:08:28;;;;;;;10.30;4.88;;;;;;;;;;5093841;28;20103;-29
2023/09/07 08:10:53;;;;;;;9.23;4.70;;;;;;;;;;5094020;28;20023;-29
2023/09/07 08:13:19;;;;;;;9.37;4.50;;;;;;;;;;5094004;28;20392;-29
2023/09/07 08:15:45;;;;;;;10.07;4.97;;;;;;;;;;5093802;28;20024;-29
2023/09/07 08:18:11;;;;;;;11.23;4.82;;;;;;;;;;5094038;28;20076;-29
2023/09/07 08:20:36;;;;;;;13.00;5.20;;;;;;;;;;5093588;28;20293;-29
2023/09/07 08:23:03;;;;;;;9.93;4.93;;;;;;;;;;5093555;28;20027;-28
2023/09/07 08:25:28;;;;;;;9.68;5.18;;;;;;;;;;5093671;28;20133;-28
2023/09/07 08:27:57;;;;;;;9.23;5.00;;;;;;;;;;5091552;28;20020;-29
2023/09/07 08:30:24;;;;;;;9.13;4.90;;;;;;;;;;5092702;28;20374;-28
2023/09/07 08:32:51;;;;;;;10.55;5.18;;;;;;;;;;5091705;28;20024;-28
2023/09/07 08:35:17;;;;;;;8.95;5.20;;;;;;;;;;5091582;28;20450;-28
2023/09/07 08:37:42;;;;;;;9.60;5.10;;;;;;;;;;5090358;28;20402;-28
2023/09/07 08:40:08;;;;;;;16.23;5.97;;;;;;;;;;5089376;28;20031;-29
2023/09/07 08:42:37;;;;;;;10.90;5.45;;;;;;;;;;5089750;28;20460;-29
2023/09/07 08:45:06;;;;;;;11.32;5.43;;;;;;;;;;5089372;28;20044;-30
2023/09/07 08:47:32;;;;;;;9.32;5.47;;;;;;;;;;5093937;28;20051;-29
2023/09/07 08:49:57;;;;;;;9.50;5.43;;;;;;;;;;5110237;28;20023;-29
2023/09/07 08:52:22;;;;;;;11.20;5.50;;;;;;;;;;5113207;28;20370;-29
2023/09/07 08:54:48;;;;;;;12.10;5.70;;;;;;;;;;5113850;28;20015;-29
2023/09/07 08:57:13;;;;;;;11.60;5.80;;;;;;;;;;5113674;28;20676;-29
2023/09/07 08:59:38;;;;;;;12.23;5.70;;;;;;;;;;5113560;28;20018;-29
2023/09/07 09:02:07;;;;;;;8.90;5.20;;;;;;;;;;5113874;28;20476;-29
2023/09/07 09:04:32;;;;;;;8.80;4.63;;;;;;;;;;5113299;28;20024;-29
2023/09/07 09:06:58;;;;;;;6.85;4.70;;;;;;;;;;5113491;28;20408;-29
2023/09/07 09:09:24;;;;;;;6.20;4.40;;;;;;;;;;5113801;28;20012;-29
2023/09/07 09:11:49;;;;;;;11.77;4.97;;;;;;;;;;5113278;28;20328;-29
2023/09/07 09:14:17;;;;;;;5.28;4.25;;;;;;;;;;5114019;28;20061;-30
2023/09/07 09:16:49;;;;;;;7.15;4.80;;;;;;;;;;5096023;28;20087;-29
2023/09/07 09:19:14;;;;;;;10.95;5.00;;;;;;;;;;5113614;28;20539;-29
2023/09/07 09:21:39;;;;;;;5.70;4.50;;;;;;;;;;5095226;28;20016;-29
2023/09/07 09:24:09;;;;;;;9.35;4.25;;;;;;;;;;5113551;28;20023;-29
2023/09/07 09:26:36;;;;;;;7.00;4.10;;;;;;;;;;5117133;28;20027;-29
2023/09/07 09:29:01;;;;;;;7.78;4.18;;;;;;;;;;5117206;28;20023;-29
2023/09/07 09:31:26;;;;;;;8.50;4.00;;;;;;;;;;5116065;28;20163;-29
2023/09/07 09:33:52;;;;;;;12.85;3.70;;;;;;;;;;5117000;28;20289;-29
2023/09/07 09:36:17;;;;;;;9.18;3.90;;;;;;;;;;5098845;28;20012;-29
2023/09/07 09:38:47;;;;;;;6.87;3.40;;;;;;;;;;5117050;28;20366;-29
2023/09/07 09:41:12;;;;;;;5.80;3.70;;;;;;;;;;5117253;28;20254;-29
2023/09/07 09:43:38;;;;;;;7.97;3.60;;;;;;;;;;5116875;28;20493;-29
2023/09/07 09:46:04;;;;;;;8.73;3.53;;;;;;;;;;5117119;28;20054;-29
2023/09/07 09:48:31;;;;;;;9.00;3.70;;;;;;;;;;5116953;28;20304;-29
2023/09/07 09:50:57;;;;;;;9.30;3.90;;;;;;;;;;5117094;28;20081;-29
2023/09/07 09:53:23;;;;;;;9.32;3.50;;;;;;;;;;5116716;28;20016;-29
2023/09/07 09:55:49;;;;;;;6.72;3.58;;;;;;;;;;5116954;28;20426;-29
2023/09/07 09:58:14;;;;;;;6.50;3.50;;;;;;;;;;5116734;28;20012;-29
2023/09/07 10:00:48;;;;;;;14.48;3.95;;;;;;;;;;5117491;28;20466;-29
2023/09/07 10:03:23;;;;;;;5.40;3.47;;;;;;;;;;5098268;28;20028;-29
2023/09/07 10:05:49;;;;;;;8.27;3.60;;;;;;;;;;5117002;28;20106;-29
2023/09/07 10:08:15;;;;;;;9.20;3.60;;;;;;;;;;5116399;28;20181;-28
2023/09/07 10:10:44;;;;;;;5.85;3.28;;;;;;;;;;5116737;28;20016;-30
2023/09/07 10:13:09;;;;;;;6.40;3.40;;;;;;;;;;5116979;28;20031;-29
2023/09/07 10:15:38;;;;;;;12.55;3.30;;;;;;;;;;5116459;28;20015;-30
2023/09/07 10:18:11;;;;;;;6.68;3.22;;;;;;;;;;5116362;28;20019;-29
2023/09/07 10:20:58;;;;;;;11.43;3.22;;;;;;;;;;5116988;28;20020;-29
2023/09/07 10:23:34;;;;;;;5.85;2.97;;;;;;;;;;5116243;28;20020;-28
2023/09/07 10:25:59;;;;;;;6.45;3.10;;;;;;;;;;5116089;28;20049;-29
2023/09/07 10:28:25;;;;;;;11.97;3.77;;;;;;;;;;5116096;28;20023;-29
2023/09/07 10:31:00;;;;;;;5.25;3.10;;;;;;;;;;5115960;28;20016;-29
2023/09/07 10:33:26;;;;;;;7.22;3.35;;;;;;;;;;5116085;28;20068;-29
2023/09/07 10:35:51;;;;;;;8.32;3.40;;;;;;;;;;5116055;28;20459;-29
2023/09/07 10:38:16;;;;;;;6.97;3.00;;;;;;;;;;5116297;28;20026;-28
2023/09/07 10:40:44;;;;;;;9.17;3.43;;;;;;;;;;5116258;28;20335;-29
2023/09/07 10:43:09;;;;;;;5.25;3.00;;;;;;;;;;5115616;28;20028;-29
2023/09/07 10:45:34;;;;;;;15.33;3.20;;;;;;;;;;5115160;28;20016;-28
2023/09/07 10:47:59;;;;;;;8.23;3.20;;;;;;;;;;5113876;28;20117;-29
2023/09/07 10:50:24;;;;;;;5.80;2.90;;;;;;;;;;5115143;28;20099;-29
2023/09/07 10:52:50;;;;;;;4.67;3.07;;;;;;;;;;5115492;28;20011;-29
2023/09/07 10:55:15;;;;;;;5.47;3.20;;;;;;;;;;5115459;28;20015;-29
2023/09/07 10:57:47;;;;;;;7.30;2.87;;;;;;;;;;5115702;28;20019;-29
2023/09/07 11:00:13;;;;;;;5.93;3.17;;;;;;;;;;5115323;28;20477;-29
2023/09/07 11:02:39;;;;;;;7.75;3.00;;;;;;;;;;5115328;28;20444;-28
2023/09/07 11:05:05;;;;;;;6.70;3.15;;;;;;;;;;5115031;28;20023;-30
2023/09/07 11:07:30;;;;;;;4.57;3.10;;;;;;;;;;5115035;28;20109;-28
2023/09/07 11:09:56;;;;;;;5.83;2.90;;;;;;;;;;5115005;28;20020;-35
2023/09/07 11:12:21;;;;;;;6.40;3.13;;;;;;;;;;5115480;28;20020;-29
2023/09/07 11:14:48;;;;;;;7.90;3.53;;;;;;;;;;5115758;28;20015;-28
2023/09/07 11:17:13;;;;;;;7.43;3.22;;;;;;;;;;5115745;28;20015;-29
2023/09/07 11:19:39;;;;;;;5.90;2.83;;;;;;;;;;5115266;28;20155;-28
2023/09/07 11:22:05;;;;;;;5.43;2.88;;;;;;;;;;5096878;28;20079;-29
2023/09/07 11:24:32;;;;;;;6.72;2.80;;;;;;;;;;5097554;28;20094;-29
2023/09/07 11:26:58;;;;;;;5.97;3.15;;;;;;;;;;5096797;28;20501;-29
2023/09/07 11:29:24;;;;;;;13.70;3.65;;;;;;;;;;5096546;28;20028;-29
2023/09/07 11:31:49;;;;;;;5.25;3.28;;;;;;;;;;5114669;28;20044;-29
2023/09/07 11:34:15;;;;;;;7.20;3.45;;;;;;;;;;5115070;28;20059;-28
2023/09/07 11:36:41;;;;;;;6.85;3.08;;;;;;;;;;5114849;28;20023;-28
2023/09/07 11:39:12;;;;;;;7.72;2.78;;;;;;;;;;5114842;28;20015;-28
2023/09/07 11:41:44;;;;;;;5.60;2.97;;;;;;;;;;5114327;28;20020;-28
2023/09/07 11:44:09;;;;;;;5.45;3.25;;;;;;;;;;5114494;28;20454;-29
2023/09/07 11:46:35;;;;;;;7.53;3.50;;;;;;;;;;5114299;28;20026;-30
2023/09/07 11:49:00;;;;;;;9.02;3.10;;;;;;;;;;5113418;28;20134;-30
2023/09/07 11:51:25;;;;;;;8.43;3.07;;;;;;;;;;5113148;28;20419;-29
2023/09/07 11:53:50;;;;;;;5.67;2.97;;;;;;;;;;5094024;28;20012;-30
2023/09/07 11:56:16;;;;;;;8.30;3.10;;;;;;;;;;5112323;28;20016;-30
2023/09/07 11:58:42;;;;;;;4.60;3.07;;;;;;;;;;5112413;28;20015;-30
2023/09/07 12:01:08;;;;;;;5.45;3.00;;;;;;;;;;5111977;28;20020;-29
2023/09/07 12:03:34;;;;;;;5.43;3.30;;;;;;;;;;5111187;28;20030;-29
2023/09/07 12:05:59;;;;;;;4.63;3.05;;;;;;;;;;5110984;28;20023;-28
2023/09/07 12:08:24;;;;;;;6.07;2.88;;;;;;;;;;5112073;28;20055;-28
2023/09/07 12:10:50;;;;;;;8.90;3.42;;;;;;;;;;5111934;28;20019;-29
2023/09/07 12:13:15;;;;;;;8.17;3.53;;;;;;;;;;5111857;28;20071;-29
2023/09/07 12:15:41;;;;;;;15.70;3.43;;;;;;;;;;5111913;28;20254;-28
2023/09/07 12:18:07;;;;;;;4.95;2.92;;;;;;;;;;5112162;28;20083;-28
2023/09/07 12:20:34;;;;;;;8.10;2.90;;;;;;;;;;5112194;28;20462;-29
2023/09/07 12:22:59;;;;;;;8.70;3.03;;;;;;;;;;5112921;28;20049;-29
2023/09/07 12:25:25;;;;;;;5.27;3.27;;;;;;;;;;5112990;28;20035;-29
2023/09/07 12:27:50;;;;;;;9.07;3.00;;;;;;;;;;5113604;28;20027;-29
2023/09/07 12:30:18;;;;;;;5.40;3.33;;;;;;;;;;5114178;28;20058;-29
2023/09/07 12:32:43;;;;;;;5.40;3.20;;;;;;;;;;5095524;28;20026;-29
2023/09/07 12:35:08;;;;;;;6.70;3.30;;;;;;;;;;5113744;28;20019;-29
2023/09/07 12:37:37;;;;;;;5.33;2.90;;;;;;;;;;5113747;28;20016;-30
2023/09/07 12:40:11;;;;;;;10.02;3.20;;;;;;;;;;5114026;28;20719;-29
2023/09/07 12:42:36;;;;;;;7.97;3.17;;;;;;;;;;5114134;28;20088;-29
2023/09/07 12:45:01;;;;;;;5.13;2.90;;;;;;;;;;5114004;28;20403;-29
2023/09/07 12:47:26;;;;;;;5.70;2.90;;;;;;;;;;5113699;28;20077;-30
2023/09/07 12:49:52;;;;;;;11.07;3.40;;;;;;;;;;5113671;28;20157;-29
2023/09/07 12:52:17;;;;;;;7.50;2.90;;;;;;;;;;5113612;28;20023;-29
2023/09/07 12:54:42;;;;;;;5.83;3.20;;;;;;;;;;5113792;28;20374;-29
2023/09/07 12:57:08;;;;;;;7.68;3.15;;;;;;;;;;5113916;28;20016;-28
2023/09/07 12:59:33;;;;;;;5.00;3.13;;;;;;;;;;5113656;28;20420;-28
2023/09/07 13:01:58;;;;;;;6.50;3.20;;;;;;;;;;5117861;28;20027;-29
2023/09/07 13:04:23;;;;;;;6.10;3.28;;;;;;;;;;5118168;28;20343;-30
2023/09/07 13:06:48;;;;;;;8.40;3.10;;;;;;;;;;5117761;28;20015;-30
2023/09/07 13:09:14;;;;;;;5.43;3.10;;;;;;;;;;5117815;28;20023;-30
2023/09/07 13:11:39;;;;;;;7.20;3.08;;;;;;;;;;5118000;28;20390;-30
2023/09/07 13:14:04;;;;;;;8.20;3.03;;;;;;;;;;5116212;28;20462;-30
2023/09/07 13:16:32;;;;;;;8.35;3.47;;;;;;;;;;5117796;28;20294;-29
2023/09/07 13:18:57;;;;;;;5.05;3.08;;;;;;;;;;5117634;28;20459;-29
2023/09/07 13:21:22;;;;;;;7.47;3.20;;;;;;;;;;5116449;28;20058;-29
2023/09/07 13:23:48;;;;;;;9.00;3.23;;;;;;;;;;5116289;28;20246;-29
2023/09/07 13:26:13;;;;;;;7.07;3.00;;;;;;;;;;5117925;28;20262;-29
2023/09/07 13:28:38;;;;;;;9.27;3.00;;;;;;;;;;5115948;28;20296;-29
2023/09/07 13:31:03;;;;;;;5.30;3.03;;;;;;;;;;5115244;28;20731;-28
2023/09/07 13:33:29;;;;;;;4.97;2.95;;;;;;;;;;5115638;28;20345;-28
2023/09/07 13:35:54;;;;;;;13.95;3.08;;;;;;;;;;5115770;28;20012;-29
2023/09/07 13:38:20;;;;;;;6.53;3.00;;;;;;;;;;5116426;28;20051;-29
2023/09/07 13:40:45;;;;;;;4.60;2.80;;;;;;;;;;5097972;28;20397;-29
2023/09/07 13:43:10;;;;;;;4.53;2.83;;;;;;;;;;5116581;28;20106;-28
2023/09/07 13:45:35;;;;;;;6.53;3.07;;;;;;;;;;5099149;28;20023;-29
2023/09/07 13:48:02;;;;;;;5.60;2.97;;;;;;;;;;5115785;28;20328;-29
2023/09/07 13:50:29;;;;;;;5.75;3.15;;;;;;;;;;5117038;28;20019;-28
2023/09/07 13:52:54;;;;;;;8.23;3.22;;;;;;;;;;5117130;28;20031;-30
2023/09/07 13:55:19;;;;;;;6.63;3.00;;;;;;;;;;5096990;28;20018;-29
2023/09/07 13:57:44;;;;;;;5.20;3.22;;;;;;;;;;5116983;28;20518;-29
2023/09/07 14:00:11;;;;;;;5.05;3.13;;;;;;;;;;5097530;28;20023;-29
2023/09/07 14:02:36;;;;;;;3.97;3.10;;;;;;;;;;5115755;28;20406;-29
2023/09/07 14:05:02;;;;;;;9.97;3.10;;;;;;;;;;5116512;28;20050;-28
2023/09/07 14:07:27;;;;;;;10.07;3.22;;;;;;;;;;5116409;28;20306;-29
2023/09/07 14:09:54;;;;;;;4.00;3.00;;;;;;;;;;5115601;28;20471;-28
2023/09/07 14:12:19;;;;;;;5.00;2.80;;;;;;;;;;5113696;28;20265;-29
2023/09/07 14:14:44;;;;;;;8.65;3.20;;;;;;;;;;5114034;28;20473;-28
2023/09/07 14:17:09;;;;;;;5.43;3.10;;;;;;;;;;5114647;28;20153;-28
2023/09/07 14:19:35;;;;;;;5.25;3.20;;;;;;;;;;5114481;28;20537;-29
2023/09/07 14:22:00;;;;;;;6.10;3.13;;;;;;;;;;5114984;28;20023;-28
2023/09/07 14:24:25;;;;;;;14.67;3.47;;;;;;;;;;5115053;28;20482;-29
2023/09/07 14:26:51;;;;;;;5.80;3.20;;;;;;;;;;5116038;28;20424;-29
2023/09/07 14:29:16;;;;;;;6.38;2.92;;;;;;;;;;5116143;28;20197;-29